Time;durP1;ratioP1;P1;durP2;ratioP2;P2;SDS_P1;SDS_P2;PMS_P1;PMS_P2;Temp;Humidity;BMP_temperature;BMP_pressure;BME280_temperature;BME280_humidity;BME280_pressure;Samples;Min_cycle;Max_cycle;Signal;HPM_P1;HPM_P2
2021/09/02 00:02:12;;;;;;;6.03;4.85;;;;;;;;;;10320711;28;20060;-59
2021/09/02 00:07:10;;;;;;;5.70;4.72;;;;;;;;;;10320372;28;20529;-59
2021/09/02 00:12:10;;;;;;;6.45;4.72;;;;;;;;;;10320085;28;20044;-59
2021/09/02 00:17:08;;;;;;;6.97;4.70;;;;;;;;;;10320375;28;20158;-59
2021/09/02 00:22:07;;;;;;;7.63;4.32;;;;;;;;;;10319603;28;20417;-59
2021/09/02 00:27:05;;;;;;;8.43;4.70;;;;;;;;;;10318122;28;20048;-58
2021/09/02 00:32:06;;;;;;;5.82;4.38;;;;;;;;;;10319711;28;20041;-59
2021/09/02 00:37:04;;;;;;;8.48;4.88;;;;;;;;;;10318986;28;20107;-59
2021/09/02 00:42:03;;;;;;;6.18;5.10;;;;;;;;;;10319208;28;20075;-59
2021/09/02 00:47:02;;;;;;;6.30;4.35;;;;;;;;;;10318602;28;20048;-59
2021/09/02 00:52:01;;;;;;;6.50;5.20;;;;;;;;;;10318735;28;20502;-59
2021/09/02 00:57:00;;;;;;;8.70;4.43;;;;;;;;;;10318183;28;20072;-59
2021/09/02 01:01:58;;;;;;;5.30;4.80;;;;;;;;;;10318096;28;20057;-57
2021/09/02 01:06:57;;;;;;;11.50;6.90;;;;;;;;;;10317137;28;20071;-58
2021/09/02 01:11:57;;;;;;;6.45;4.82;;;;;;;;;;10317627;28;20056;-59
2021/09/02 01:16:56;;;;;;;5.88;4.70;;;;;;;;;;10317504;28;20071;-58
2021/09/02 01:21:54;;;;;;;5.38;4.68;;;;;;;;;;10316918;28;20041;-59
2021/09/02 01:26:54;;;;;;;6.18;4.70;;;;;;;;;;10317365;28;20095;-58
2021/09/02 01:31:53;;;;;;;6.95;4.75;;;;;;;;;;10316981;28;20079;-58
2021/09/02 01:36:51;;;;;;;7.80;5.57;;;;;;;;;;10316407;28;20083;-57
2021/09/02 01:41:50;;;;;;;7.70;4.70;;;;;;;;;;10316896;28;20047;-59
2021/09/02 01:46:50;;;;;;;6.72;4.25;;;;;;;;;;10315911;28;20108;-59
2021/09/02 01:51:48;;;;;;;5.95;4.65;;;;;;;;;;10316628;28;20049;-59
2021/09/02 01:56:46;;;;;;;8.38;5.10;;;;;;;;;;10316536;28;20450;-59
2021/09/02 02:01:45;;;;;;;7.57;5.30;;;;;;;;;;10316296;28;20057;-58
2021/09/02 02:06:45;;;;;;;8.95;4.45;;;;;;;;;;10316251;28;20059;-59
2021/09/02 02:11:43;;;;;;;7.30;5.53;;;;;;;;;;10316461;28;20041;-58
2021/09/02 02:16:41;;;;;;;11.50;4.90;;;;;;;;;;10315333;28;20076;-58
2021/09/02 02:21:39;;;;;;;6.88;4.63;;;;;;;;;;10323651;28;20052;-58
2021/09/02 02:26:39;;;;;;;7.60;5.25;;;;;;;;;;10324248;28;20037;-59
2021/09/02 02:31:38;;;;;;;8.20;5.57;;;;;;;;;;10323512;28;20040;-59
2021/09/02 02:36:36;;;;;;;9.40;5.63;;;;;;;;;;10323468;28;20087;-59
2021/09/02 02:41:34;;;;;;;7.85;5.60;;;;;;;;;;10323379;28;20114;-59
2021/09/02 02:46:34;;;;;;;8.50;5.68;;;;;;;;;;10323143;28;20044;-59
2021/09/02 02:51:34;;;;;;;6.53;5.70;;;;;;;;;;10322936;28;20032;-58
2021/09/02 02:56:33;;;;;;;5.93;5.30;;;;;;;;;;10323566;28;20072;-59
2021/09/02 03:01:31;;;;;;;9.30;5.53;;;;;;;;;;10322332;28;20052;-59
2021/09/02 03:06:31;;;;;;;11.50;5.30;;;;;;;;;;10322319;28;20417;-59
2021/09/02 03:11:31;;;;;;;12.27;5.85;;;;;;;;;;10323167;28;20076;-59
2021/09/02 03:16:29;;;;;;;7.82;6.05;;;;;;;;;;10322369;28;20333;-59
2021/09/02 03:21:28;;;;;;;7.10;5.20;;;;;;;;;;10321961;28;20067;-59
2021/09/02 03:26:27;;;;;;;6.38;5.38;;;;;;;;;;10321824;28;20481;-58
2021/09/02 03:31:26;;;;;;;7.93;6.03;;;;;;;;;;10320675;28;20075;-60
2021/09/02 03:36:24;;;;;;;7.78;5.50;;;;;;;;;;10321550;28;20111;-59
2021/09/02 03:41:28;;;;;;;9.20;5.75;;;;;;;;;;10321844;28;20045;-59
2021/09/02 03:46:26;;;;;;;6.78;5.28;;;;;;;;;;10320817;28;20047;-60
2021/09/02 03:51:25;;;;;;;10.48;5.82;;;;;;;;;;10321397;28;20037;-59
2021/09/02 03:56:23;;;;;;;6.25;4.95;;;;;;;;;;10319253;28;20079;-59
2021/09/02 04:01:25;;;;;;;7.40;5.35;;;;;;;;;;10278829;28;20061;-59
2021/09/02 04:06:23;;;;;;;8.52;6.60;;;;;;;;;;10279221;28;20044;-59
2021/09/02 04:11:21;;;;;;;7.72;6.60;;;;;;;;;;10279783;28;20075;-58
2021/09/02 04:16:20;;;;;;;6.18;4.88;;;;;;;;;;10276020;28;20075;-58
2021/09/02 04:21:19;;;;;;;6.35;4.70;;;;;;;;;;10278770;28;20049;-58
2021/09/02 04:26:19;;;;;;;10.02;6.95;;;;;;;;;;10292536;28;20514;-57
2021/09/02 04:31:18;;;;;;;8.13;6.35;;;;;;;;;;10313050;28;20068;-58
2021/09/02 04:36:16;;;;;;;7.25;6.15;;;;;;;;;;10286957;28;20072;-58
2021/09/02 04:41:16;;;;;;;9.35;4.70;;;;;;;;;;10292431;28;20479;-58
2021/09/02 04:46:14;;;;;;;9.82;4.28;;;;;;;;;;10298139;28;20071;-58
2021/09/02 04:51:12;;;;;;;8.52;5.32;;;;;;;;;;10277566;28;20052;-58
2021/09/02 04:56:11;;;;;;;12.40;9.55;;;;;;;;;;10271801;28;20084;-58
2021/09/02 05:01:10;;;;;;;9.70;6.65;;;;;;;;;;10271819;28;20532;-59
2021/09/02 05:06:09;;;;;;;5.47;4.70;;;;;;;;;;10273614;28;20340;-59
2021/09/02 05:11:07;;;;;;;7.45;5.40;;;;;;;;;;10272969;28;20069;-58
2021/09/02 05:16:06;;;;;;;37.40;28.15;;;;;;;;;;10272923;28;20072;-59
2021/09/02 05:21:07;;;;;;;8.63;5.78;;;;;;;;;;10275985;28;20037;-58
2021/09/02 05:26:06;;;;;;;8.38;4.53;;;;;;;;;;10276213;28;20073;-60
2021/09/02 05:31:04;;;;;;;15.13;11.85;;;;;;;;;;10276317;28;20411;-59
2021/09/02 05:36:03;;;;;;;8.18;5.65;;;;;;;;;;10275902;28;20088;-59
2021/09/02 05:41:02;;;;;;;7.72;4.97;;;;;;;;;;10275836;28;20096;-59
2021/09/02 05:46:01;;;;;;;6.30;4.90;;;;;;;;;;10275529;28;20056;-59
2021/09/02 05:50:59;;;;;;;10.88;4.88;;;;;;;;;;10276167;28;20076;-59
2021/09/02 05:55:57;;;;;;;12.27;4.72;;;;;;;;;;10275124;28;20485;-59
2021/09/02 06:00:57;;;;;;;9.27;5.32;;;;;;;;;;10273916;28;20057;-59
2021/09/02 06:05:56;;;;;;;10.52;4.72;;;;;;;;;;10275278;28;20490;-59
2021/09/02 06:10:54;;;;;;;11.73;4.57;;;;;;;;;;10275744;28;20422;-59
2021/09/02 06:15:52;;;;;;;10.85;5.32;;;;;;;;;;10275471;28;20084;-59
2021/09/02 06:20:52;;;;;;;6.25;4.30;;;;;;;;;;10275024;28;20045;-59
2021/09/02 06:25:50;;;;;;;7.30;4.60;;;;;;;;;;10275024;28;20410;-59
2021/09/02 06:30:49;;;;;;;9.90;4.63;;;;;;;;;;10274932;28;20552;-60
2021/09/02 06:35:48;;;;;;;11.40;4.75;;;;;;;;;;10274814;28;20483;-59
2021/09/02 06:40:47;;;;;;;6.10;4.50;;;;;;;;;;10274765;28;20045;-59
2021/09/02 06:45:46;;;;;;;8.38;3.97;;;;;;;;;;10273189;28;20527;-59
2021/09/02 06:50:44;;;;;;;9.00;4.35;;;;;;;;;;10275025;28;20077;-60
2021/09/02 06:55:42;;;;;;;8.05;4.80;;;;;;;;;;10274250;28;20088;-60
2021/09/02 07:00:44;;;;;;;7.65;4.28;;;;;;;;;;10283947;28;20095;-59
2021/09/02 07:05:45;;;;;;;7.68;4.43;;;;;;;;;;10299672;28;20516;-59
2021/09/02 07:10:43;;;;;;;7.55;4.15;;;;;;;;;;10300479;28;20422;-59
2021/09/02 07:15:42;;;;;;;9.10;4.22;;;;;;;;;;10285825;28;20506;-60
2021/09/02 07:20:41;;;;;;;13.00;4.80;;;;;;;;;;10283338;28;20338;-59
2021/09/02 07:25:40;;;;;;;7.32;4.40;;;;;;;;;;10300826;28;20072;-59
2021/09/02 07:30:40;;;;;;;8.93;4.82;;;;;;;;;;10293614;28;20068;-59
2021/09/02 07:35:38;;;;;;;8.07;3.83;;;;;;;;;;10289580;28;20076;-59
2021/09/02 07:40:38;;;;;;;4.70;3.78;;;;;;;;;;10294347;28;20080;-59
2021/09/02 07:45:36;;;;;;;5.75;3.67;;;;;;;;;;10287231;28;20079;-59
2021/09/02 07:50:34;;;;;;;26.95;5.55;;;;;;;;;;10313715;28;20095;-60
2021/09/02 07:55:33;;;;;;;7.25;4.00;;;;;;;;;;10315314;28;20076;-59
2021/09/02 08:00:33;;;;;;;6.35;4.45;;;;;;;;;;10315895;28;20076;-60
2021/09/02 08:05:31;;;;;;;4.35;3.55;;;;;;;;;;10317464;28;20052;-60
2021/09/02 08:10:30;;;;;;;9.90;4.05;;;;;;;;;;10319906;28;20079;-60
2021/09/02 08:15:28;;;;;;;6.30;4.78;;;;;;;;;;10319300;28;20445;-60
2021/09/02 08:20:28;;;;;;;10.20;4.30;;;;;;;;;;10319873;28;20059;-60
2021/09/02 08:25:26;;;;;;;9.48;4.45;;;;;;;;;;10319700;28;20398;-61
2021/09/02 08:30:26;;;;;;;9.48;3.58;;;;;;;;;;10319544;28;20048;-61
2021/09/02 08:35:25;;;;;;;5.25;3.13;;;;;;;;;;10318887;28;20043;-61
2021/09/02 08:40:25;;;;;;;7.60;3.40;;;;;;;;;;10318626;28;20076;-60
2021/09/02 08:45:24;;;;;;;7.57;3.95;;;;;;;;;;10319043;28;20630;-61
2021/09/02 08:50:24;;;;;;;8.35;4.47;;;;;;;;;;10318335;28;20044;-61
2021/09/02 08:55:23;;;;;;;5.75;3.13;;;;;;;;;;10318675;28;20041;-59
2021/09/02 09:00:24;;;;;;;5.93;2.97;;;;;;;;;;10318022;28;20079;-61
2021/09/02 09:05:22;;;;;;;6.63;3.47;;;;;;;;;;10316948;28;20055;-60
2021/09/02 09:10:22;;;;;;;5.18;2.88;;;;;;;;;;10317555;28;20410;-60
2021/09/02 09:15:21;;;;;;;6.75;2.72;;;;;;;;;;10317189;28;20429;-60
2021/09/02 09:20:22;;;;;;;6.15;2.65;;;;;;;;;;10317533;28;20087;-60
2021/09/02 09:25:20;;;;;;;4.43;2.33;;;;;;;;;;10316906;28;20056;-60
2021/09/02 09:30:19;;;;;;;2.92;2.25;;;;;;;;;;10317377;28;20041;-60
2021/09/02 09:35:19;;;;;;;6.22;3.88;;;;;;;;;;10318035;28;20438;-60
2021/09/02 09:40:21;;;;;;;3.53;2.80;;;;;;;;;;10317580;28;20056;-60
2021/09/02 09:45:31;;;;;;;5.55;2.85;;;;;;;;;;10317075;28;20088;-60
2021/09/02 09:50:30;;;;;;;3.47;2.40;;;;;;;;;;10316385;28;20044;-60
2021/09/02 09:55:30;;;;;;;4.57;2.63;;;;;;;;;;10316725;28;20048;-60
2021/09/02 10:00:28;;;;;;;3.80;2.58;;;;;;;;;;10316258;28;20087;-60
2021/09/02 10:05:27;;;;;;;4.43;2.15;;;;;;;;;;10315858;28;20048;-60
2021/09/02 10:10:27;;;;;;;5.22;2.47;;;;;;;;;;10315940;28;20036;-61
2021/09/02 10:15:30;;;;;;;9.00;2.60;;;;;;;;;;10316426;28;20048;-60
2021/09/02 10:20:29;;;;;;;2.63;2.05;;;;;;;;;;10315782;28;20914;-60
2021/09/02 10:25:34;;;;;;;5.35;2.45;;;;;;;;;;10316261;28;20430;-59
2021/09/02 10:30:39;;;;;;;4.57;2.72;;;;;;;;;;10315504;28;20072;-60
2021/09/02 10:35:38;;;;;;;3.70;2.47;;;;;;;;;;10315663;28;20048;-60
2021/09/02 10:40:49;;;;;;;2.92;2.20;;;;;;;;;;10318900;28;20079;-60
2021/09/02 10:45:53;;;;;;;2.08;1.88;;;;;;;;;;10323338;28;20036;-60
2021/09/02 10:50:55;;;;;;;4.38;2.67;;;;;;;;;;10323418;28;20076;-59
2021/09/02 10:55:57;;;;;;;2.92;1.98;;;;;;;;;;10322956;28;20422;-59
2021/09/02 11:00:56;;;;;;;4.60;1.80;;;;;;;;;;10322494;28;20080;-60
2021/09/02 11:05:56;;;;;;;2.83;2.05;;;;;;;;;;10322372;28;20467;-60
2021/09/02 11:11:08;;;;;;;4.18;3.15;;;;;;;;;;10322721;28;20040;-60
2021/09/02 11:16:08;;;;;;;5.05;2.67;;;;;;;;;;10321947;28;20037;-61
2021/09/02 11:21:10;;;;;;;3.45;2.45;;;;;;;;;;10321769;28;20079;-60
2021/09/02 11:26:09;;;;;;;3.95;2.45;;;;;;;;;;10322438;28;20409;-60
2021/09/02 11:31:11;;;;;;;11.18;3.17;;;;;;;;;;10321540;28;20093;-60
2021/09/02 11:36:10;;;;;;;6.72;3.22;;;;;;;;;;10321721;28;20056;-60
2021/09/02 11:41:09;;;;;;;9.65;3.42;;;;;;;;;;10321196;28;20072;-60
2021/09/02 11:46:09;;;;;;;7.18;2.75;;;;;;;;;;10319677;28;20430;-60
2021/09/02 11:51:07;;;;;;;4.07;2.72;;;;;;;;;;10320149;28;20494;-60
2021/09/02 11:56:12;;;;;;;6.63;2.53;;;;;;;;;;10320715;28;20079;-60
2021/09/02 12:01:13;;;;;;;3.72;2.17;;;;;;;;;;10320196;28;20535;-60
2021/09/02 12:06:11;;;;;;;3.97;2.20;;;;;;;;;;10320705;28;20088;-60
2021/09/02 12:11:10;;;;;;;8.20;1.98;;;;;;;;;;10320159;28;20036;-60
2021/09/02 12:16:10;;;;;;;3.10;2.80;;;;;;;;;;10319892;28;20036;-60
2021/09/02 12:21:11;;;;;;;5.60;1.77;;;;;;;;;;10319934;28;20081;-60
2021/09/02 12:26:19;;;;;;;5.40;2.17;;;;;;;;;;10319916;28;20083;-60
2021/09/02 12:31:18;;;;;;;4.75;2.25;;;;;;;;;;10319164;28;20041;-60
2021/09/02 12:36:23;;;;;;;3.78;2.65;;;;;;;;;;10319021;28;20075;-60
2021/09/02 12:41:22;;;;;;;4.68;3.25;;;;;;;;;;10318811;28;20520;-60
2021/09/02 12:46:21;;;;;;;3.17;2.88;;;;;;;;;;10318676;28;20059;-60
2021/09/02 12:51:23;;;;;;;5.50;2.30;;;;;;;;;;10318215;28;20080;-60
2021/09/02 12:56:21;;;;;;;5.95;3.25;;;;;;;;;;10318712;28;20049;-60
2021/09/02 13:01:19;;;;;;;5.88;2.80;;;;;;;;;;10317809;28;20487;-60
2021/09/02 13:06:18;;;;;;;3.20;2.50;;;;;;;;;;10316995;28;20409;-60
2021/09/02 13:11:18;;;;;;;2.50;1.83;;;;;;;;;;10318046;28;20424;-60
2021/09/02 13:16:16;;;;;;;5.65;1.63;;;;;;;;;;10317604;28;20421;-60
2021/09/02 13:21:14;;;;;;;2.53;1.60;;;;;;;;;;10317298;28;20075;-60
2021/09/02 13:26:14;;;;;;;2.97;1.92;;;;;;;;;;10317282;28;20051;-60
2021/09/02 13:31:14;;;;;;;4.97;2.35;;;;;;;;;;10317236;28;20052;-60
2021/09/02 13:36:12;;;;;;;2.85;2.40;;;;;;;;;;10312378;28;20067;-58
2021/09/02 13:41:11;;;;;;;4.57;2.00;;;;;;;;;;10288835;28;20087;-58
2021/09/02 13:46:10;;;;;;;2.95;1.88;;;;;;;;;;10284507;28;20040;-59
2021/09/02 13:51:11;;;;;;;4.93;1.90;;;;;;;;;;10295099;28;20072;-59
2021/09/02 13:56:09;;;;;;;1.98;1.80;;;;;;;;;;10279165;28;20041;-58
2021/09/02 14:01:08;;;;;;;2.53;1.85;;;;;;;;;;10288762;28;20091;-59
2021/09/02 14:06:06;;;;;;;5.78;4.53;;;;;;;;;;10274395;28;20045;-59
2021/09/02 14:11:06;;;;;;;8.40;4.70;;;;;;;;;;10275130;28;20052;-59
2021/09/02 14:16:05;;;;;;;3.35;2.40;;;;;;;;;;10280044;28;20049;-59
2021/09/02 14:21:03;;;;;;;11.95;8.23;;;;;;;;;;10280313;28;20084;-60
2021/09/02 14:26:02;;;;;;;8.07;4.13;;;;;;;;;;10280448;28;20076;-58
2021/09/02 14:31:02;;;;;;;6.68;5.10;;;;;;;;;;10283694;28;20044;-60
2021/09/02 14:36:00;;;;;;;10.38;6.53;;;;;;;;;;10282930;28;20045;-60
2021/09/02 14:40:58;;;;;;;10.05;5.07;;;;;;;;;;10282796;28;20076;-59
2021/09/02 14:45:57;;;;;;;6.07;3.08;;;;;;;;;;10282622;28;20490;-59
2021/09/02 14:50:57;;;;;;;7.45;4.38;;;;;;;;;;10282825;28;20107;-58
2021/09/02 14:55:55;;;;;;;7.00;4.15;;;;;;;;;;10282274;28;20083;-58
2021/09/02 15:00:53;;;;;;;7.18;3.90;;;;;;;;;;10280995;28;20103;-59
2021/09/02 15:05:52;;;;;;;6.57;3.63;;;;;;;;;;10282181;28;20045;-59
2021/09/02 15:10:51;;;;;;;7.88;4.00;;;;;;;;;;10282318;28;20080;-59
2021/09/02 15:15:50;;;;;;;8.35;4.60;;;;;;;;;;10281247;28;20056;-59
2021/09/02 15:20:49;;;;;;;8.80;4.97;;;;;;;;;;10280827;28;20069;-60
2021/09/02 15:25:48;;;;;;;7.55;4.22;;;;;;;;;;10279779;28;20037;-60
2021/09/02 15:30:47;;;;;;;13.75;4.97;;;;;;;;;;10280472;28;20056;-59
2021/09/02 15:35:47;;;;;;;8.77;4.53;;;;;;;;;;10280091;28;20057;-59
2021/09/02 15:40:45;;;;;;;10.75;5.50;;;;;;;;;;10280100;28;20077;-60
2021/09/02 15:45:43;;;;;;;8.25;4.93;;;;;;;;;;10279951;28;20076;-59
2021/09/02 15:50:43;;;;;;;5.15;3.67;;;;;;;;;;10280009;28;20446;-59
2021/09/02 15:55:42;;;;;;;5.45;3.78;;;;;;;;;;10279679;28;20124;-60
2021/09/02 16:00:40;;;;;;;8.50;7.68;;;;;;;;;;10279284;28;20081;-59
2021/09/02 16:05:38;;;;;;;3.72;3.30;;;;;;;;;;10279283;28;20052;-60
2021/09/02 16:10:38;;;;;;;13.48;4.28;;;;;;;;;;10279140;28;20041;-59
2021/09/02 16:15:36;;;;;;;13.20;6.25;;;;;;;;;;10278852;28;20091;-59
2021/09/02 16:20:35;;;;;;;11.75;4.88;;;;;;;;;;10273882;28;20075;-59
2021/09/02 16:25:33;;;;;;;6.55;5.38;;;;;;;;;;10278371;28;20041;-59
2021/09/02 16:30:33;;;;;;;7.78;5.00;;;;;;;;;;10276350;28;20488;-60
2021/09/02 16:35:31;;;;;;;9.93;4.38;;;;;;;;;;10274795;28;20072;-60
2021/09/02 16:40:30;;;;;;;4.07;3.00;;;;;;;;;;10277298;28;20072;-60
2021/09/02 16:45:28;;;;;;;5.60;3.47;;;;;;;;;;10276296;28;20473;-60
2021/09/02 16:50:29;;;;;;;31.08;23.92;;;;;;;;;;10277479;28;20526;-60
2021/09/02 16:55:27;;;;;;;10.07;5.85;;;;;;;;;;10277274;28;20073;-60
2021/09/02 17:00:25;;;;;;;10.65;7.50;;;;;;;;;;10276853;28;20079;-60
2021/09/02 17:05:24;;;;;;;6.80;3.58;;;;;;;;;;10277766;28;20052;-60
2021/09/02 17:10:23;;;;;;;8.02;3.60;;;;;;;;;;10277642;28;20045;-60
2021/09/02 17:15:23;;;;;;;6.25;3.72;;;;;;;;;;10276512;28;20045;-60
2021/09/02 17:20:23;;;;;;;9.60;6.85;;;;;;;;;;10276339;28;20084;-60
2021/09/02 17:25:21;;;;;;;8.18;6.00;;;;;;;;;;10276225;28;20114;-60
2021/09/02 17:30:22;;;;;;;13.75;6.10;;;;;;;;;;10275995;28;20422;-60
2021/09/02 17:35:20;;;;;;;10.30;3.70;;;;;;;;;;10276636;28;20059;-60
2021/09/02 17:40:18;;;;;;;8.70;7.78;;;;;;;;;;10276769;28;20073;-60
2021/09/02 17:45:16;;;;;;;8.65;3.85;;;;;;;;;;10276705;28;20084;-60
2021/09/02 17:50:16;;;;;;;4.85;4.43;;;;;;;;;;10276286;28;20044;-60
2021/09/02 17:55:14;;;;;;;6.78;4.80;;;;;;;;;;10276408;28;20072;-60
2021/09/02 18:00:14;;;;;;;11.50;3.38;;;;;;;;;;10276317;28;20095;-60
2021/09/02 18:05:13;;;;;;;4.18;3.03;;;;;;;;;;10273552;28;20067;-54
2021/09/02 18:10:13;;;;;;;3.63;3.10;;;;;;;;;;10297473;28;20069;-60
2021/09/02 18:15:12;;;;;;;3.95;2.47;;;;;;;;;;10290300;28;20385;-60
2021/09/02 18:20:11;;;;;;;4.35;3.05;;;;;;;;;;10293695;28;20076;-60
2021/09/02 18:25:09;;;;;;;6.63;2.92;;;;;;;;;;10290740;28;20055;-59
2021/09/02 18:30:12;;;;;;;6.38;3.17;;;;;;;;;;10296004;28;20090;-59
2021/09/02 18:35:11;;;;;;;4.45;3.22;;;;;;;;;;10293387;28;20076;-58
2021/09/02 18:40:10;;;;;;;4.40;3.10;;;;;;;;;;10291830;28;20101;-58
2021/09/02 18:45:10;;;;;;;5.55;3.15;;;;;;;;;;10299849;28;20482;-58
2021/09/02 18:50:09;;;;;;;3.60;2.90;;;;;;;;;;10277034;28;20037;-59
2021/09/02 18:55:08;;;;;;;9.60;3.45;;;;;;;;;;10275560;28;20045;-59
2021/09/02 19:00:07;;;;;;;5.22;2.97;;;;;;;;;;10275178;28;20529;-58
2021/09/02 19:05:11;;;;;;;5.07;2.70;;;;;;;;;;10282311;28;20080;-59
2021/09/02 19:10:09;;;;;;;4.82;3.00;;;;;;;;;;10281522;28;20084;-59
2021/09/02 19:15:08;;;;;;;9.57;3.90;;;;;;;;;;10282261;28;20084;-58
2021/09/02 19:20:08;;;;;;;5.00;2.67;;;;;;;;;;10282202;28;20073;-59
2021/09/02 19:25:07;;;;;;;4.55;2.67;;;;;;;;;;10282211;28;20068;-56
2021/09/02 19:30:06;;;;;;;5.28;2.53;;;;;;;;;;10281784;28;20118;-58
2021/09/02 19:35:05;;;;;;;8.10;3.28;;;;;;;;;;10281842;28;20059;-58
2021/09/02 19:40:06;;;;;;;7.03;3.53;;;;;;;;;;10281541;28;20104;-58
2021/09/02 19:45:05;;;;;;;4.57;2.90;;;;;;;;;;10280194;28;20037;-59
2021/09/02 19:50:04;;;;;;;3.50;2.80;;;;;;;;;;10281016;28;20083;-58
2021/09/02 19:55:21;;;;;;;4.80;2.65;;;;;;;;;;10279885;28;20532;-58
2021/09/02 20:00:20;;;;;;;11.73;2.92;;;;;;;;;;10279260;28;20076;-59
2021/09/02 20:05:23;;;;;;;8.55;4.28;;;;;;;;;;10280729;28;20413;-58
2021/09/02 20:10:23;;;;;;;4.63;2.80;;;;;;;;;;10279434;28;20056;-58
2021/09/02 20:15:22;;;;;;;11.98;3.85;;;;;;;;;;10278834;28;20072;-59
2021/09/02 20:20:20;;;;;;;5.72;2.70;;;;;;;;;;10280034;28;20438;-60
2021/09/02 20:25:19;;;;;;;4.07;2.75;;;;;;;;;;10278709;28;20045;-56
2021/09/02 20:30:19;;;;;;;5.35;3.28;;;;;;;;;;10279670;28;20048;-57
2021/09/02 20:35:19;;;;;;;2.92;2.47;;;;;;;;;;10276923;28;20411;-57
2021/09/02 20:40:18;;;;;;;3.50;3.00;;;;;;;;;;10279037;28;20045;-57
2021/09/02 20:45:17;;;;;;;6.55;2.53;;;;;;;;;;10278873;28;20041;-57
2021/09/02 20:50:19;;;;;;;4.97;2.15;;;;;;;;;;10278599;28;20056;-57
2021/09/02 20:55:18;;;;;;;6.72;2.95;;;;;;;;;;10278712;28;20410;-58
2021/09/02 21:00:16;;;;;;;7.38;3.65;;;;;;;;;;10278402;28;20041;-58
2021/09/02 21:05:15;;;;;;;4.10;2.97;;;;;;;;;;10278308;28;20052;-58
2021/09/02 21:10:16;;;;;;;3.72;2.63;;;;;;;;;;10278084;28;20080;-58
2021/09/02 21:15:15;;;;;;;5.15;2.95;;;;;;;;;;10277825;28;20060;-59
2021/09/02 21:20:16;;;;;;;5.43;2.88;;;;;;;;;;10277693;28;20041;-58
2021/09/02 21:25:20;;;;;;;4.50;2.40;;;;;;;;;;10275478;28;20095;-58
2021/09/02 21:30:19;;;;;;;4.80;2.90;;;;;;;;;;10277578;28;20055;-58
2021/09/02 21:35:20;;;;;;;8.75;2.70;;;;;;;;;;10277266;28;20048;-57
2021/09/02 21:40:21;;;;;;;4.90;3.25;;;;;;;;;;10276025;28;20057;-58
2021/09/02 21:45:21;;;;;;;4.65;2.45;;;;;;;;;;10277205;28;20076;-58
2021/09/02 21:50:20;;;;;;;4.07;2.88;;;;;;;;;;10276509;28;20092;-57
2021/09/02 21:55:19;;;;;;;2.78;2.20;;;;;;;;;;10276843;28;20076;-57
2021/09/02 22:00:19;;;;;;;2.88;2.20;;;;;;;;;;10276564;28;20437;-59
2021/09/02 22:05:19;;;;;;;6.63;2.78;;;;;;;;;;10276498;28;20073;-58
2021/09/02 22:10:17;;;;;;;3.05;2.38;;;;;;;;;;10276584;28;20041;-59
2021/09/02 22:15:18;;;;;;;3.38;2.38;;;;;;;;;;10276329;28;20060;-58
2021/09/02 22:20:23;;;;;;;4.82;3.15;;;;;;;;;;10276097;28;20049;-58
2021/09/02 22:25:24;;;;;;;2.67;2.05;;;;;;;;;;10275139;28;20091;-58
2021/09/02 22:30:23;;;;;;;2.58;2.10;;;;;;;;;;10275061;28;20049;-58
2021/09/02 22:35:23;;;;;;;7.18;2.72;;;;;;;;;;10276584;28;20077;-58
2021/09/02 22:40:23;;;;;;;3.95;2.53;;;;;;;;;;10282842;28;20077;-59
2021/09/02 22:45:23;;;;;;;7.60;2.58;;;;;;;;;;10283246;28;20094;-59
2021/09/02 22:50:23;;;;;;;4.97;2.78;;;;;;;;;;10282599;28;20045;-58
2021/09/02 22:55:22;;;;;;;7.22;2.88;;;;;;;;;;10282824;28;20045;-59
2021/09/02 23:00:21;;;;;;;3.97;2.63;;;;;;;;;;10282306;28;20479;-59
2021/09/02 23:05:19;;;;;;;4.97;2.95;;;;;;;;;;10281786;28;20099;-58
2021/09/02 23:10:25;;;;;;;7.13;3.10;;;;;;;;;;10282803;28;20048;-58
2021/09/02 23:15:24;;;;;;;4.40;3.97;;;;;;;;;;10281541;28;20049;-57
2021/09/02 23:20:23;;;;;;;4.00;2.92;;;;;;;;;;10281349;28;20076;-58
2021/09/02 23:25:22;;;;;;;7.88;3.13;;;;;;;;;;10281933;28;20092;-58
2021/09/02 23:30:21;;;;;;;6.68;3.20;;;;;;;;;;10281501;28;20071;-58
2021/09/02 23:35:20;;;;;;;8.38;3.70;;;;;;;;;;10280540;28;20041;-58
2021/09/02 23:40:18;;;;;;;4.95;2.72;;;;;;;;;;10280452;28;20106;-58
2021/09/02 23:45:19;;;;;;;3.70;3.15;;;;;;;;;;10281319;28;20077;-59
2021/09/02 23:50:17;;;;;;;7.05;3.17;;;;;;;;;;10280503;28;20091;-59
2021/09/02 23:55:17;;;;;;;11.43;3.17;;;;;;;;;;10279757;28;20076;-59
